sensor_id;sensor_type;location;lat;lon;timestamp;P1;durP1;ratioP1;P2;durP2;ratioP2
54037;SDS011;39954;48.844;9.726;2023-05-15T00:00:39;48.80;;;13.57;;
54037;SDS011;39954;48.844;9.726;2023-05-15T00:01:42;45.15;;;12.20;;
54037;SDS011;39954;48.844;9.726;2023-05-15T00:02:47;46.03;;;12.63;;
54037;SDS011;39954;48.844;9.726;2023-05-15T00:03:50;51.47;;;13.15;;
54037;SDS011;39954;48.844;9.726;2023-05-15T00:04:55;53.08;;;14.05;;
54037;SDS011;39954;48.844;9.726;2023-05-15T00:05:57;43.00;;;11.57;;
54037;SDS011;39954;48.844;9.726;2023-05-15T00:07:02;59.22;;;13.77;;
54037;SDS011;39954;48.844;9.726;2023-05-15T00:08:05;59.10;;;14.63;;
54037;SDS011;39954;48.844;9.726;2023-05-15T00:09:10;58.55;;;15.52;;
54037;SDS011;39954;48.844;9.726;2023-05-15T00:10:13;53.83;;;13.38;;
54037;SDS011;39954;48.844;9.726;2023-05-15T00:11:17;61.13;;;15.38;;
54037;SDS011;39954;48.844;9.726;2023-05-15T00:12:20;76.57;;;18.40;;
54037;SDS011;39954;48.844;9.726;2023-05-15T00:13:25;60.08;;;14.93;;
54037;SDS011;39954;48.844;9.726;2023-05-15T00:14:30;65.82;;;15.73;;
54037;SDS011;39954;48.844;9.726;2023-05-15T00:15:35;69.80;;;16.50;;
54037;SDS011;39954;48.844;9.726;2023-05-15T00:16:37;44.55;;;13.07;;
54037;SDS011;39954;48.844;9.726;2023-05-15T00:17:42;55.33;;;14.68;;
54037;SDS011;39954;48.844;9.726;2023-05-15T00:18:44;66.18;;;16.33;;
54037;SDS011;39954;48.844;9.726;2023-05-15T00:19:49;59.85;;;15.07;;
54037;SDS011;39954;48.844;9.726;2023-05-15T00:20:51;59.95;;;15.40;;
54037;SDS011;39954;48.844;9.726;2023-05-15T00:21:56;64.05;;;15.85;;
54037;SDS011;39954;48.844;9.726;2023-05-15T00:22:58;46.17;;;14.40;;
54037;SDS011;39954;48.844;9.726;2023-05-15T00:24:03;55.17;;;15.75;;
54037;SDS011;39954;48.844;9.726;2023-05-15T00:25:06;46.50;;;14.15;;
54037;SDS011;39954;48.844;9.726;2023-05-15T00:26:11;42.28;;;13.65;;
54037;SDS011;39954;48.844;9.726;2023-05-15T00:27:16;35.30;;;13.13;;
54037;SDS011;39954;48.844;9.726;2023-05-15T00:28:20;36.58;;;13.50;;
54037;SDS011;39954;48.844;9.726;2023-05-15T00:29:23;32.60;;;12.05;;
54037;SDS011;39954;48.844;9.726;2023-05-15T00:30:30;32.83;;;13.05;;
54037;SDS011;39954;48.844;9.726;2023-05-15T00:31:32;31.98;;;12.23;;
54037;SDS011;39954;48.844;9.726;2023-05-15T00:32:37;41.33;;;13.52;;
54037;SDS011;39954;48.844;9.726;2023-05-15T00:33:39;35.50;;;13.13;;
54037;SDS011;39954;48.844;9.726;2023-05-15T00:34:44;26.63;;;11.20;;
54037;SDS011;39954;48.844;9.726;2023-05-15T00:35:46;27.98;;;11.77;;
54037;SDS011;39954;48.844;9.726;2023-05-15T00:36:51;31.58;;;10.93;;
54037;SDS011;39954;48.844;9.726;2023-05-15T00:37:53;19.15;;;9.40;;
54037;SDS011;39954;48.844;9.726;2023-05-15T00:38:58;29.98;;;10.90;;
54037;SDS011;39954;48.844;9.726;2023-05-15T00:40:00;37.75;;;13.57;;
54037;SDS011;39954;48.844;9.726;2023-05-15T00:41:05;28.20;;;11.60;;
54037;SDS011;39954;48.844;9.726;2023-05-15T00:42:08;37.75;;;14.63;;
54037;SDS011;39954;48.844;9.726;2023-05-15T00:43:14;23.40;;;10.85;;
54037;SDS011;39954;48.844;9.726;2023-05-15T00:44:17;35.63;;;13.77;;
54037;SDS011;39954;48.844;9.726;2023-05-15T00:45:23;41.55;;;15.63;;
54037;SDS011;39954;48.844;9.726;2023-05-15T00:46:29;34.53;;;13.23;;
54037;SDS011;39954;48.844;9.726;2023-05-15T00:47:35;34.83;;;13.27;;
54037;SDS011;39954;48.844;9.726;2023-05-15T00:48:40;31.05;;;11.60;;
54037;SDS011;39954;48.844;9.726;2023-05-15T00:49:46;36.47;;;14.23;;
54037;SDS011;39954;48.844;9.726;2023-05-15T00:50:50;47.10;;;14.73;;
54037;SDS011;39954;48.844;9.726;2023-05-15T00:51:55;36.30;;;13.13;;
54037;SDS011;39954;48.844;9.726;2023-05-15T00:52:57;34.00;;;12.93;;
54037;SDS011;39954;48.844;9.726;2023-05-15T00:54:03;40.20;;;14.38;;
54037;SDS011;39954;48.844;9.726;2023-05-15T00:55:06;36.25;;;12.82;;
54037;SDS011;39954;48.844;9.726;2023-05-15T00:56:11;38.42;;;13.57;;
54037;SDS011;39954;48.844;9.726;2023-05-15T00:57:14;36.95;;;12.82;;
54037;SDS011;39954;48.844;9.726;2023-05-15T00:58:22;35.97;;;14.15;;
54037;SDS011;39954;48.844;9.726;2023-05-15T00:59:25;38.47;;;14.07;;
54037;SDS011;39954;48.844;9.726;2023-05-15T01:00:31;33.45;;;14.18;;
54037;SDS011;39954;48.844;9.726;2023-05-15T01:01:37;31.17;;;13.20;;
54037;SDS011;39954;48.844;9.726;2023-05-15T01:02:41;29.27;;;12.30;;
54037;SDS011;39954;48.844;9.726;2023-05-15T01:03:44;35.05;;;12.30;;
54037;SDS011;39954;48.844;9.726;2023-05-15T01:04:49;34.42;;;13.18;;
54037;SDS011;39954;48.844;9.726;2023-05-15T01:05:51;34.10;;;12.55;;
54037;SDS011;39954;48.844;9.726;2023-05-15T01:06:56;32.67;;;12.93;;
54037;SDS011;39954;48.844;9.726;2023-05-15T01:08:00;42.20;;;14.52;;
54037;SDS011;39954;48.844;9.726;2023-05-15T01:09:10;39.78;;;13.63;;
54037;SDS011;39954;48.844;9.726;2023-05-15T01:10:14;41.83;;;13.70;;
54037;SDS011;39954;48.844;9.726;2023-05-15T01:11:21;45.20;;;15.32;;
54037;SDS011;39954;48.844;9.726;2023-05-15T01:12:27;45.55;;;14.98;;
54037;SDS011;39954;48.844;9.726;2023-05-15T01:13:35;31.85;;;12.30;;
54037;SDS011;39954;48.844;9.726;2023-05-15T01:14:37;29.08;;;12.25;;
54037;SDS011;39954;48.844;9.726;2023-05-15T01:15:42;31.20;;;11.73;;
54037;SDS011;39954;48.844;9.726;2023-05-15T01:16:47;36.03;;;12.65;;
54037;SDS011;39954;48.844;9.726;2023-05-15T01:17:51;29.52;;;12.23;;
54037;SDS011;39954;48.844;9.726;2023-05-15T01:18:54;28.60;;;11.73;;
54037;SDS011;39954;48.844;9.726;2023-05-15T01:19:58;27.05;;;11.45;;
54037;SDS011;39954;48.844;9.726;2023-05-15T01:21:27;25.65;;;12.18;;
54037;SDS011;39954;48.844;9.726;2023-05-15T01:24:16;39.83;;;15.18;;
54037;SDS011;39954;48.844;9.726;2023-05-15T01:25:36;35.10;;;14.02;;
54037;SDS011;39954;48.844;9.726;2023-05-15T01:27:09;34.80;;;13.75;;
54037;SDS011;39954;48.844;9.726;2023-05-15T01:28:21;36.85;;;14.15;;
54037;SDS011;39954;48.844;9.726;2023-05-15T01:29:32;34.75;;;13.30;;
54037;SDS011;39954;48.844;9.726;2023-05-15T01:30:39;45.83;;;16.60;;
54037;SDS011;39954;48.844;9.726;2023-05-15T01:31:46;38.75;;;15.40;;
54037;SDS011;39954;48.844;9.726;2023-05-15T01:32:57;33.67;;;14.32;;
54037;SDS011;39954;48.844;9.726;2023-05-15T01:34:08;35.65;;;14.40;;
54037;SDS011;39954;48.844;9.726;2023-05-15T01:35:12;45.08;;;16.23;;
54037;SDS011;39954;48.844;9.726;2023-05-15T01:36:22;43.85;;;15.93;;
54037;SDS011;39954;48.844;9.726;2023-05-15T01:37:31;51.20;;;18.50;;
54037;SDS011;39954;48.844;9.726;2023-05-15T01:38:39;39.50;;;15.27;;
54037;SDS011;39954;48.844;9.726;2023-05-15T01:39:45;40.88;;;15.60;;
54037;SDS011;39954;48.844;9.726;2023-05-15T01:40:54;36.00;;;14.32;;
54037;SDS011;39954;48.844;9.726;2023-05-15T01:42:18;47.17;;;15.90;;
54037;SDS011;39954;48.844;9.726;2023-05-15T01:43:27;34.67;;;13.48;;
54037;SDS011;39954;48.844;9.726;2023-05-15T01:44:33;42.65;;;15.23;;
54037;SDS011;39954;48.844;9.726;2023-05-15T01:45:40;68.47;;;22.38;;
54037;SDS011;39954;48.844;9.726;2023-05-15T01:46:56;36.72;;;15.02;;
54037;SDS011;39954;48.844;9.726;2023-05-15T01:48:02;41.97;;;14.65;;
54037;SDS011;39954;48.844;9.726;2023-05-15T01:49:09;34.25;;;13.95;;
54037;SDS011;39954;48.844;9.726;2023-05-15T01:50:17;34.53;;;13.82;;
54037;SDS011;39954;48.844;9.726;2023-05-15T01:51:21;35.33;;;13.98;;
54037;SDS011;39954;48.844;9.726;2023-05-15T01:52:28;48.00;;;17.50;;
54037;SDS011;39954;48.844;9.726;2023-05-15T01:53:33;31.98;;;13.38;;
54037;SDS011;39954;48.844;9.726;2023-05-15T01:54:39;32.50;;;14.10;;
54037;SDS011;39954;48.844;9.726;2023-05-15T01:55:42;25.60;;;12.15;;
54037;SDS011;39954;48.844;9.726;2023-05-15T01:56:48;27.52;;;12.20;;
54037;SDS011;39954;48.844;9.726;2023-05-15T01:57:54;30.73;;;13.35;;
54037;SDS011;39954;48.844;9.726;2023-05-15T01:59:04;29.95;;;13.25;;
54037;SDS011;39954;48.844;9.726;2023-05-15T02:00:09;33.72;;;14.85;;
54037;SDS011;39954;48.844;9.726;2023-05-15T02:01:15;37.38;;;15.50;;
54037;SDS011;39954;48.844;9.726;2023-05-15T02:02:18;33.72;;;14.48;;
54037;SDS011;39954;48.844;9.726;2023-05-15T02:03:25;47.20;;;18.80;;
54037;SDS011;39954;48.844;9.726;2023-05-15T02:04:27;31.33;;;14.65;;
54037;SDS011;39954;48.844;9.726;2023-05-15T02:05:33;33.13;;;15.80;;
54037;SDS011;39954;48.844;9.726;2023-05-15T02:06:35;39.47;;;17.55;;
54037;SDS011;39954;48.844;9.726;2023-05-15T02:07:41;35.67;;;16.48;;
54037;SDS011;39954;48.844;9.726;2023-05-15T02:08:45;31.35;;;15.25;;
54037;SDS011;39954;48.844;9.726;2023-05-15T02:09:52;34.20;;;15.00;;
54037;SDS011;39954;48.844;9.726;2023-05-15T02:10:54;33.33;;;15.35;;
54037;SDS011;39954;48.844;9.726;2023-05-15T02:12:01;33.85;;;15.50;;
54037;SDS011;39954;48.844;9.726;2023-05-15T02:13:08;34.35;;;15.55;;
54037;SDS011;39954;48.844;9.726;2023-05-15T02:14:13;44.72;;;16.88;;
54037;SDS011;39954;48.844;9.726;2023-05-15T02:15:17;49.38;;;17.48;;
54037;SDS011;39954;48.844;9.726;2023-05-15T02:16:24;50.42;;;18.58;;
54037;SDS011;39954;48.844;9.726;2023-05-15T02:17:26;40.50;;;16.85;;
54037;SDS011;39954;48.844;9.726;2023-05-15T02:18:32;52.17;;;18.25;;
54037;SDS011;39954;48.844;9.726;2023-05-15T02:19:34;59.17;;;19.90;;
54037;SDS011;39954;48.844;9.726;2023-05-15T02:20:38;48.08;;;16.52;;
54037;SDS011;39954;48.844;9.726;2023-05-15T02:21:41;42.35;;;16.65;;
54037;SDS011;39954;48.844;9.726;2023-05-15T02:22:45;46.60;;;17.20;;
54037;SDS011;39954;48.844;9.726;2023-05-15T02:23:47;45.22;;;16.52;;
54037;SDS011;39954;48.844;9.726;2023-05-15T02:24:52;52.85;;;17.52;;
54037;SDS011;39954;48.844;9.726;2023-05-15T02:25:59;50.55;;;16.65;;
54037;SDS011;39954;48.844;9.726;2023-05-15T02:27:16;47.17;;;16.35;;
54037;SDS011;39954;48.844;9.726;2023-05-15T02:28:27;43.25;;;16.17;;
54037;SDS011;39954;48.844;9.726;2023-05-15T02:29:40;39.53;;;15.38;;
54037;SDS011;39954;48.844;9.726;2023-05-15T02:30:53;48.13;;;16.25;;
54037;SDS011;39954;48.844;9.726;2023-05-15T02:32:03;39.35;;;16.00;;
54037;SDS011;39954;48.844;9.726;2023-05-15T02:33:13;51.85;;;18.42;;
54037;SDS011;39954;48.844;9.726;2023-05-15T02:34:27;49.85;;;17.95;;
54037;SDS011;39954;48.844;9.726;2023-05-15T02:35:36;36.20;;;14.65;;
54037;SDS011;39954;48.844;9.726;2023-05-15T02:36:47;48.38;;;16.90;;
54037;SDS011;39954;48.844;9.726;2023-05-15T02:37:56;42.10;;;15.80;;
54037;SDS011;39954;48.844;9.726;2023-05-15T02:39:03;37.85;;;15.93;;
54037;SDS011;39954;48.844;9.726;2023-05-15T02:40:09;36.30;;;15.10;;
54037;SDS011;39954;48.844;9.726;2023-05-15T02:41:14;43.30;;;17.00;;
54037;SDS011;39954;48.844;9.726;2023-05-15T02:42:26;52.80;;;16.48;;
54037;SDS011;39954;48.844;9.726;2023-05-15T02:43:32;53.20;;;18.38;;
54037;SDS011;39954;48.844;9.726;2023-05-15T02:44:39;48.45;;;17.85;;
54037;SDS011;39954;48.844;9.726;2023-05-15T02:45:44;152.43;;;40.08;;
54037;SDS011;39954;48.844;9.726;2023-05-15T02:46:52;43.67;;;18.23;;
54037;SDS011;39954;48.844;9.726;2023-05-15T02:47:55;49.05;;;18.65;;
54037;SDS011;39954;48.844;9.726;2023-05-15T02:49:00;49.95;;;18.90;;
54037;SDS011;39954;48.844;9.726;2023-05-15T02:50:03;47.58;;;18.73;;
54037;SDS011;39954;48.844;9.726;2023-05-15T02:51:10;51.92;;;18.55;;
54037;SDS011;39954;48.844;9.726;2023-05-15T02:52:12;47.83;;;18.17;;
54037;SDS011;39954;48.844;9.726;2023-05-15T02:53:18;52.17;;;19.00;;
54037;SDS011;39954;48.844;9.726;2023-05-15T02:54:20;47.00;;;19.00;;
54037;SDS011;39954;48.844;9.726;2023-05-15T02:55:25;70.93;;;21.77;;
54037;SDS011;39954;48.844;9.726;2023-05-15T02:56:27;46.33;;;17.00;;
54037;SDS011;39954;48.844;9.726;2023-05-15T02:57:32;47.67;;;18.08;;
54037;SDS011;39954;48.844;9.726;2023-05-15T02:58:37;64.68;;;19.98;;
54037;SDS011;39954;48.844;9.726;2023-05-15T02:59:42;48.28;;;18.63;;
54037;SDS011;39954;48.844;9.726;2023-05-15T03:00:44;44.58;;;17.70;;
54037;SDS011;39954;48.844;9.726;2023-05-15T03:01:49;53.33;;;18.00;;
54037;SDS011;39954;48.844;9.726;2023-05-15T03:02:51;49.30;;;18.35;;
54037;SDS011;39954;48.844;9.726;2023-05-15T03:03:56;45.17;;;17.02;;
54037;SDS011;39954;48.844;9.726;2023-05-15T03:04:58;45.45;;;16.92;;
54037;SDS011;39954;48.844;9.726;2023-05-15T03:06:03;45.72;;;16.92;;
54037;SDS011;39954;48.844;9.726;2023-05-15T03:07:05;38.22;;;15.02;;
54037;SDS011;39954;48.844;9.726;2023-05-15T03:08:10;43.40;;;16.58;;
54037;SDS011;39954;48.844;9.726;2023-05-15T03:09:12;41.78;;;16.20;;
54037;SDS011;39954;48.844;9.726;2023-05-15T03:10:17;37.45;;;15.18;;
54037;SDS011;39954;48.844;9.726;2023-05-15T03:11:21;48.80;;;16.77;;
54037;SDS011;39954;48.844;9.726;2023-05-15T03:12:26;55.30;;;17.95;;
54037;SDS011;39954;48.844;9.726;2023-05-15T03:13:28;48.40;;;16.85;;
54037;SDS011;39954;48.844;9.726;2023-05-15T03:14:35;52.85;;;17.42;;
54037;SDS011;39954;48.844;9.726;2023-05-15T03:15:37;49.10;;;17.55;;
54037;SDS011;39954;48.844;9.726;2023-05-15T03:16:42;52.40;;;17.45;;
54037;SDS011;39954;48.844;9.726;2023-05-15T03:17:44;43.75;;;16.15;;
54037;SDS011;39954;48.844;9.726;2023-05-15T03:18:49;51.20;;;17.52;;
54037;SDS011;39954;48.844;9.726;2023-05-15T03:19:51;46.70;;;16.55;;
54037;SDS011;39954;48.844;9.726;2023-05-15T03:20:56;54.92;;;17.40;;
54037;SDS011;39954;48.844;9.726;2023-05-15T03:21:59;46.75;;;16.95;;
54037;SDS011;39954;48.844;9.726;2023-05-15T03:23:03;64.40;;;19.83;;
54037;SDS011;39954;48.844;9.726;2023-05-15T03:24:06;64.72;;;19.08;;
54037;SDS011;39954;48.844;9.726;2023-05-15T03:25:11;52.67;;;17.63;;
54037;SDS011;39954;48.844;9.726;2023-05-15T03:26:13;53.70;;;18.08;;
54037;SDS011;39954;48.844;9.726;2023-05-15T03:27:18;50.67;;;16.98;;
54037;SDS011;39954;48.844;9.726;2023-05-15T03:28:20;60.15;;;19.58;;
54037;SDS011;39954;48.844;9.726;2023-05-15T03:29:24;62.60;;;20.17;;
54037;SDS011;39954;48.844;9.726;2023-05-15T03:30:29;53.60;;;18.10;;
54037;SDS011;39954;48.844;9.726;2023-05-15T03:31:34;69.78;;;20.98;;
54037;SDS011;39954;48.844;9.726;2023-05-15T03:32:36;51.92;;;17.35;;
54037;SDS011;39954;48.844;9.726;2023-05-15T03:33:41;52.70;;;18.40;;
54037;SDS011;39954;48.844;9.726;2023-05-15T03:34:46;55.80;;;18.38;;
54037;SDS011;39954;48.844;9.726;2023-05-15T03:35:50;61.08;;;17.95;;
54037;SDS011;39954;48.844;9.726;2023-05-15T03:36:53;51.97;;;17.48;;
54037;SDS011;39954;48.844;9.726;2023-05-15T03:37:57;57.40;;;18.50;;
54037;SDS011;39954;48.844;9.726;2023-05-15T03:39:00;76.40;;;21.88;;
54037;SDS011;39954;48.844;9.726;2023-05-15T03:40:05;58.03;;;18.92;;
54037;SDS011;39954;48.844;9.726;2023-05-15T03:41:09;52.03;;;17.15;;
54037;SDS011;39954;48.844;9.726;2023-05-15T03:42:13;64.32;;;19.20;;
54037;SDS011;39954;48.844;9.726;2023-05-15T03:43:16;60.00;;;19.80;;
54037;SDS011;39954;48.844;9.726;2023-05-15T03:44:20;70.78;;;20.15;;
54037;SDS011;39954;48.844;9.726;2023-05-15T03:45:23;59.85;;;20.02;;
54037;SDS011;39954;48.844;9.726;2023-05-15T03:46:31;76.40;;;21.10;;
54037;SDS011;39954;48.844;9.726;2023-05-15T03:47:33;68.82;;;20.42;;
54037;SDS011;39954;48.844;9.726;2023-05-15T03:48:38;56.22;;;19.35;;
54037;SDS011;39954;48.844;9.726;2023-05-15T03:49:40;60.67;;;19.50;;
54037;SDS011;39954;48.844;9.726;2023-05-15T03:50:45;46.22;;;14.48;;
54037;SDS011;39954;48.844;9.726;2023-05-15T03:51:47;62.22;;;18.42;;
54037;SDS011;39954;48.844;9.726;2023-05-15T03:52:52;56.53;;;18.08;;
54037;SDS011;39954;48.844;9.726;2023-05-15T03:53:54;58.80;;;18.27;;
54037;SDS011;39954;48.844;9.726;2023-05-15T03:54:59;64.22;;;19.73;;
54037;SDS011;39954;48.844;9.726;2023-05-15T03:56:01;57.97;;;18.58;;
54037;SDS011;39954;48.844;9.726;2023-05-15T03:57:06;50.90;;;18.20;;
54037;SDS011;39954;48.844;9.726;2023-05-15T03:58:08;53.03;;;16.77;;
54037;SDS011;39954;48.844;9.726;2023-05-15T03:59:13;54.38;;;17.90;;
54037;SDS011;39954;48.844;9.726;2023-05-15T04:00:15;67.82;;;20.63;;
54037;SDS011;39954;48.844;9.726;2023-05-15T04:01:21;61.88;;;19.40;;
54037;SDS011;39954;48.844;9.726;2023-05-15T04:02:25;65.50;;;19.30;;
54037;SDS011;39954;48.844;9.726;2023-05-15T04:03:30;57.72;;;19.33;;
54037;SDS011;39954;48.844;9.726;2023-05-15T04:04:32;56.55;;;18.77;;
54037;SDS011;39954;48.844;9.726;2023-05-15T04:05:38;61.28;;;19.02;;
54037;SDS011;39954;48.844;9.726;2023-05-15T04:06:40;65.38;;;20.02;;
54037;SDS011;39954;48.844;9.726;2023-05-15T04:07:45;58.92;;;18.42;;
54037;SDS011;39954;48.844;9.726;2023-05-15T04:08:47;62.63;;;18.75;;
54037;SDS011;39954;48.844;9.726;2023-05-15T04:09:52;59.50;;;18.38;;
54037;SDS011;39954;48.844;9.726;2023-05-15T04:10:54;54.95;;;17.90;;
54037;SDS011;39954;48.844;9.726;2023-05-15T04:11:59;61.67;;;19.58;;
54037;SDS011;39954;48.844;9.726;2023-05-15T04:13:01;50.53;;;20.27;;
54037;SDS011;39954;48.844;9.726;2023-05-15T04:14:06;50.30;;;18.65;;
54037;SDS011;39954;48.844;9.726;2023-05-15T04:15:14;58.05;;;21.55;;
54037;SDS011;39954;48.844;9.726;2023-05-15T04:16:20;55.65;;;19.90;;
54037;SDS011;39954;48.844;9.726;2023-05-15T04:17:25;50.78;;;20.20;;
54037;SDS011;39954;48.844;9.726;2023-05-15T04:18:31;66.35;;;22.88;;
54037;SDS011;39954;48.844;9.726;2023-05-15T04:19:33;51.40;;;20.98;;
54037;SDS011;39954;48.844;9.726;2023-05-15T04:20:37;53.17;;;20.55;;
54037;SDS011;39954;48.844;9.726;2023-05-15T04:21:40;58.53;;;20.65;;
54037;SDS011;39954;48.844;9.726;2023-05-15T04:22:45;50.22;;;21.05;;
54037;SDS011;39954;48.844;9.726;2023-05-15T04:23:47;51.15;;;20.88;;
54037;SDS011;39954;48.844;9.726;2023-05-15T04:24:52;47.20;;;20.17;;
54037;SDS011;39954;48.844;9.726;2023-05-15T04:25:54;45.45;;;18.60;;
54037;SDS011;39954;48.844;9.726;2023-05-15T04:26:59;51.28;;;21.48;;
54037;SDS011;39954;48.844;9.726;2023-05-15T04:28:01;50.58;;;20.52;;
54037;SDS011;39954;48.844;9.726;2023-05-15T04:29:07;49.03;;;20.88;;
54037;SDS011;39954;48.844;9.726;2023-05-15T04:30:10;55.47;;;22.95;;
54037;SDS011;39954;48.844;9.726;2023-05-15T04:31:16;53.60;;;21.85;;
54037;SDS011;39954;48.844;9.726;2023-05-15T04:32:18;59.00;;;24.27;;
54037;SDS011;39954;48.844;9.726;2023-05-15T04:33:25;64.38;;;22.52;;
54037;SDS011;39954;48.844;9.726;2023-05-15T04:34:27;47.78;;;20.90;;
54037;SDS011;39954;48.844;9.726;2023-05-15T04:35:32;64.47;;;24.27;;
54037;SDS011;39954;48.844;9.726;2023-05-15T04:36:34;63.65;;;23.10;;
54037;SDS011;39954;48.844;9.726;2023-05-15T04:37:42;52.83;;;21.70;;
54037;SDS011;39954;48.844;9.726;2023-05-15T04:38:46;65.30;;;25.02;;
54037;SDS011;39954;48.844;9.726;2023-05-15T04:39:50;57.03;;;22.83;;
54037;SDS011;39954;48.844;9.726;2023-05-15T04:40:52;54.95;;;23.33;;
54037;SDS011;39954;48.844;9.726;2023-05-15T04:41:57;57.78;;;23.17;;
54037;SDS011;39954;48.844;9.726;2023-05-15T04:42:59;56.00;;;23.25;;
54037;SDS011;39954;48.844;9.726;2023-05-15T04:44:04;72.05;;;25.83;;
54037;SDS011;39954;48.844;9.726;2023-05-15T04:45:07;55.35;;;21.60;;
54037;SDS011;39954;48.844;9.726;2023-05-15T04:46:12;60.95;;;23.80;;
54037;SDS011;39954;48.844;9.726;2023-05-15T04:47:14;54.80;;;22.75;;
54037;SDS011;39954;48.844;9.726;2023-05-15T04:48:19;63.85;;;22.48;;
54037;SDS011;39954;48.844;9.726;2023-05-15T04:49:23;71.70;;;25.77;;
54037;SDS011;39954;48.844;9.726;2023-05-15T04:50:28;56.13;;;22.20;;
54037;SDS011;39954;48.844;9.726;2023-05-15T04:51:31;56.72;;;22.77;;
54037;SDS011;39954;48.844;9.726;2023-05-15T04:52:35;71.50;;;25.33;;
54037;SDS011;39954;48.844;9.726;2023-05-15T04:53:37;51.67;;;21.77;;
54037;SDS011;39954;48.844;9.726;2023-05-15T04:54:42;52.30;;;21.85;;
54037;SDS011;39954;48.844;9.726;2023-05-15T04:55:44;56.03;;;22.05;;
54037;SDS011;39954;48.844;9.726;2023-05-15T04:56:51;53.97;;;22.73;;
54037;SDS011;39954;48.844;9.726;2023-05-15T04:57:54;46.42;;;18.98;;
54037;SDS011;39954;48.844;9.726;2023-05-15T04:58:58;55.13;;;22.52;;
54037;SDS011;39954;48.844;9.726;2023-05-15T05:00:01;40.58;;;18.83;;
54037;SDS011;39954;48.844;9.726;2023-05-15T05:01:10;39.00;;;18.90;;
54037;SDS011;39954;48.844;9.726;2023-05-15T05:02:12;47.95;;;19.73;;
54037;SDS011;39954;48.844;9.726;2023-05-15T05:03:17;47.20;;;20.13;;
54037;SDS011;39954;48.844;9.726;2023-05-15T05:04:19;41.97;;;18.40;;
54037;SDS011;39954;48.844;9.726;2023-05-15T05:05:27;53.75;;;21.50;;
54037;SDS011;39954;48.844;9.726;2023-05-15T05:06:29;46.65;;;19.95;;
54037;SDS011;39954;48.844;9.726;2023-05-15T05:07:34;46.60;;;19.65;;
54037;SDS011;39954;48.844;9.726;2023-05-15T05:08:36;46.35;;;19.73;;
54037;SDS011;39954;48.844;9.726;2023-05-15T05:09:41;40.40;;;17.27;;
54037;SDS011;39954;48.844;9.726;2023-05-15T05:10:43;39.75;;;17.60;;
54037;SDS011;39954;48.844;9.726;2023-05-15T05:11:48;43.30;;;17.75;;
54037;SDS011;39954;48.844;9.726;2023-05-15T05:12:50;49.60;;;19.23;;
54037;SDS011;39954;48.844;9.726;2023-05-15T05:13:55;46.45;;;17.98;;
54037;SDS011;39954;48.844;9.726;2023-05-15T05:14:57;41.72;;;15.77;;
54037;SDS011;39954;48.844;9.726;2023-05-15T05:16:02;39.58;;;16.25;;
54037;SDS011;39954;48.844;9.726;2023-05-15T05:17:07;37.10;;;15.90;;
54037;SDS011;39954;48.844;9.726;2023-05-15T05:18:09;39.58;;;15.65;;
54037;SDS011;39954;48.844;9.726;2023-05-15T05:19:13;45.72;;;17.80;;
54037;SDS011;39954;48.844;9.726;2023-05-15T05:20:16;42.42;;;17.35;;
54037;SDS011;39954;48.844;9.726;2023-05-15T05:21:23;43.20;;;17.73;;
54037;SDS011;39954;48.844;9.726;2023-05-15T05:22:25;47.20;;;19.23;;
54037;SDS011;39954;48.844;9.726;2023-05-15T05:23:30;43.60;;;17.23;;
54037;SDS011;39954;48.844;9.726;2023-05-15T05:24:32;53.95;;;24.30;;
54037;SDS011;39954;48.844;9.726;2023-05-15T05:25:38;38.60;;;15.85;;
54037;SDS011;39954;48.844;9.726;2023-05-15T05:26:42;34.95;;;14.38;;
54037;SDS011;39954;48.844;9.726;2023-05-15T05:27:47;44.47;;;16.08;;
54037;SDS011;39954;48.844;9.726;2023-05-15T05:28:49;32.92;;;13.30;;
54037;SDS011;39954;48.844;9.726;2023-05-15T05:29:54;51.75;;;16.80;;
54037;SDS011;39954;48.844;9.726;2023-05-15T05:30:56;43.05;;;15.48;;
54037;SDS011;39954;48.844;9.726;2023-05-15T05:32:01;62.28;;;20.17;;
54037;SDS011;39954;48.844;9.726;2023-05-15T05:33:03;35.00;;;14.10;;
54037;SDS011;39954;48.844;9.726;2023-05-15T05:34:08;41.38;;;14.63;;
54037;SDS011;39954;48.844;9.726;2023-05-15T05:35:10;40.47;;;14.40;;
54037;SDS011;39954;48.844;9.726;2023-05-15T05:36:15;34.45;;;13.85;;
54037;SDS011;39954;48.844;9.726;2023-05-15T05:37:19;32.60;;;13.50;;
54037;SDS011;39954;48.844;9.726;2023-05-15T05:38:24;54.22;;;18.48;;
54037;SDS011;39954;48.844;9.726;2023-05-15T05:39:28;37.47;;;14.52;;
54037;SDS011;39954;48.844;9.726;2023-05-15T05:40:32;37.38;;;13.73;;
54037;SDS011;39954;48.844;9.726;2023-05-15T05:41:34;35.17;;;14.55;;
54037;SDS011;39954;48.844;9.726;2023-05-15T05:42:39;27.83;;;12.48;;
54037;SDS011;39954;48.844;9.726;2023-05-15T05:43:41;32.10;;;13.25;;
54037;SDS011;39954;48.844;9.726;2023-05-15T05:44:46;33.80;;;13.23;;
54037;SDS011;39954;48.844;9.726;2023-05-15T05:46:03;116.32;;;39.75;;
54037;SDS011;39954;48.844;9.726;2023-05-15T05:47:05;30.48;;;12.68;;
54037;SDS011;39954;48.844;9.726;2023-05-15T05:48:10;28.13;;;12.65;;
54037;SDS011;39954;48.844;9.726;2023-05-15T05:49:13;48.33;;;14.38;;
54037;SDS011;39954;48.844;9.726;2023-05-15T05:50:18;40.85;;;13.98;;
54037;SDS011;39954;48.844;9.726;2023-05-15T05:51:20;35.70;;;13.65;;
54037;SDS011;39954;48.844;9.726;2023-05-15T05:52:28;44.63;;;15.30;;
54037;SDS011;39954;48.844;9.726;2023-05-15T05:53:30;42.03;;;13.60;;
54037;SDS011;39954;48.844;9.726;2023-05-15T05:54:35;37.67;;;13.90;;
54037;SDS011;39954;48.844;9.726;2023-05-15T05:55:37;47.90;;;15.85;;
54037;SDS011;39954;48.844;9.726;2023-05-15T05:56:42;33.28;;;11.38;;
54037;SDS011;39954;48.844;9.726;2023-05-15T05:57:44;31.08;;;12.05;;
54037;SDS011;39954;48.844;9.726;2023-05-15T05:58:49;34.65;;;13.18;;
54037;SDS011;39954;48.844;9.726;2023-05-15T05:59:51;35.85;;;12.68;;
54037;SDS011;39954;48.844;9.726;2023-05-15T06:00:56;35.13;;;12.50;;
54037;SDS011;39954;48.844;9.726;2023-05-15T06:01:58;33.67;;;12.38;;
54037;SDS011;39954;48.844;9.726;2023-05-15T06:03:04;26.65;;;10.90;;
54037;SDS011;39954;48.844;9.726;2023-05-15T06:04:06;32.28;;;11.30;;
54037;SDS011;39954;48.844;9.726;2023-05-15T06:05:11;31.85;;;12.43;;
54037;SDS011;39954;48.844;9.726;2023-05-15T06:06:13;25.13;;;10.05;;
54037;SDS011;39954;48.844;9.726;2023-05-15T06:07:18;26.83;;;10.27;;
54037;SDS011;39954;48.844;9.726;2023-05-15T06:08:23;29.75;;;11.32;;
54037;SDS011;39954;48.844;9.726;2023-05-15T06:09:27;26.67;;;9.70;;
54037;SDS011;39954;48.844;9.726;2023-05-15T06:10:30;31.02;;;10.82;;
54037;SDS011;39954;48.844;9.726;2023-05-15T06:11:34;24.90;;;10.20;;
54037;SDS011;39954;48.844;9.726;2023-05-15T06:12:37;27.42;;;10.35;;
54037;SDS011;39954;48.844;9.726;2023-05-15T06:13:42;30.23;;;10.90;;
54037;SDS011;39954;48.844;9.726;2023-05-15T06:14:44;32.60;;;10.52;;
54037;SDS011;39954;48.844;9.726;2023-05-15T06:15:49;36.55;;;11.98;;
54037;SDS011;39954;48.844;9.726;2023-05-15T06:16:51;33.35;;;11.13;;
54037;SDS011;39954;48.844;9.726;2023-05-15T06:17:56;33.60;;;10.32;;
54037;SDS011;39954;48.844;9.726;2023-05-15T06:18:58;27.15;;;10.15;;
54037;SDS011;39954;48.844;9.726;2023-05-15T06:20:03;31.02;;;10.05;;
54037;SDS011;39954;48.844;9.726;2023-05-15T06:21:07;28.73;;;9.98;;